sensor_id;sensor_type;location;lat;lon;timestamp;P1;durP1;ratioP1;P2;durP2;ratioP2
17528;SDS011;8882;53.192;8.184;2023-07-08T07:00:41;10.10;;;2.40;;
17528;SDS011;8882;53.192;8.184;2023-07-08T07:03:10;6.45;;;2.15;;
17528;SDS011;8882;53.192;8.184;2023-07-08T07:05:36;2.65;;;2.10;;
17528;SDS011;8882;53.192;8.184;2023-07-08T07:08:02;2.53;;;2.10;;
17528;SDS011;8882;53.192;8.184;2023-07-08T07:10:28;2.20;;;2.03;;
17528;SDS011;8882;53.192;8.184;2023-07-08T07:12:54;2.88;;;2.30;;
17528;SDS011;8882;53.192;8.184;2023-07-08T07:15:20;2.58;;;2.25;;
17528;SDS011;8882;53.192;8.184;2023-07-08T07:17:45;2.42;;;2.10;;
17528;SDS011;8882;53.192;8.184;2023-07-08T07:20:11;3.13;;;2.28;;
17528;SDS011;8882;53.192;8.184;2023-07-08T07:22:37;4.03;;;2.60;;
17528;SDS011;8882;53.192;8.184;2023-07-08T07:25:03;2.58;;;2.17;;
17528;SDS011;8882;53.192;8.184;2023-07-08T07:27:29;2.53;;;2.08;;
17528;SDS011;8882;53.192;8.184;2023-07-08T07:29:55;3.80;;;2.10;;
17528;SDS011;8882;53.192;8.184;2023-07-08T07:32:23;2.47;;;1.90;;
17528;SDS011;8882;53.192;8.184;2023-07-08T07:34:49;2.83;;;2.42;;
17528;SDS011;8882;53.192;8.184;2023-07-08T07:37:16;2.60;;;2.40;;
17528;SDS011;8882;53.192;8.184;2023-07-08T07:39:43;3.83;;;2.03;;
17528;SDS011;8882;53.192;8.184;2023-07-08T07:42:09;3.17;;;2.28;;
17528;SDS011;8882;53.192;8.184;2023-07-08T07:44:36;1.90;;;1.80;;
17528;SDS011;8882;53.192;8.184;2023-07-08T07:47:04;2.92;;;2.20;;
17528;SDS011;8882;53.192;8.184;2023-07-08T07:49:30;3.50;;;2.28;;
17528;SDS011;8882;53.192;8.184;2023-07-08T07:51:56;9.52;;;2.60;;
17528;SDS011;8882;53.192;8.184;2023-07-08T07:54:22;2.65;;;2.45;;
17528;SDS011;8882;53.192;8.184;2023-07-08T07:56:47;2.83;;;2.00;;
17528;SDS011;8882;53.192;8.184;2023-07-08T07:59:13;4.85;;;2.22;;
17528;SDS011;8882;53.192;8.184;2023-07-08T08:01:38;3.20;;;2.30;;
17528;SDS011;8882;53.192;8.184;2023-07-08T08:04:06;2.35;;;2.15;;
17528;SDS011;8882;53.192;8.184;2023-07-08T08:06:31;2.28;;;2.03;;
17528;SDS011;8882;53.192;8.184;2023-07-08T08:08:57;2.60;;;2.15;;
17528;SDS011;8882;53.192;8.184;2023-07-08T08:11:22;2.60;;;2.22;;
17528;SDS011;8882;53.192;8.184;2023-07-08T08:13:50;3.97;;;2.38;;
17528;SDS011;8882;53.192;8.184;2023-07-08T08:16:16;5.75;;;2.60;;
17528;SDS011;8882;53.192;8.184;2023-07-08T08:18:41;2.30;;;2.10;;
17528;SDS011;8882;53.192;8.184;2023-07-08T08:21:07;3.40;;;2.38;;
17528;SDS011;8882;53.192;8.184;2023-07-08T08:23:32;3.92;;;2.13;;
17528;SDS011;8882;53.192;8.184;2023-07-08T08:25:58;4.63;;;2.35;;
17528;SDS011;8882;53.192;8.184;2023-07-08T08:28:23;3.65;;;2.30;;
17528;SDS011;8882;53.192;8.184;2023-07-08T08:30:49;4.15;;;2.05;;
17528;SDS011;8882;53.192;8.184;2023-07-08T08:33:15;3.50;;;2.58;;
17528;SDS011;8882;53.192;8.184;2023-07-08T08:35:42;3.72;;;2.38;;
17528;SDS011;8882;53.192;8.184;2023-07-08T08:38:08;2.58;;;2.28;;
17528;SDS011;8882;53.192;8.184;2023-07-08T08:40:33;4.47;;;2.40;;
17528;SDS011;8882;53.192;8.184;2023-07-08T08:48:16;4.45;;;2.40;;
17528;SDS011;8882;53.192;8.184;2023-07-08T08:50:58;4.63;;;2.47;;
17528;SDS011;8882;53.192;8.184;2023-07-08T08:53:29;3.75;;;2.30;;
17528;SDS011;8882;53.192;8.184;2023-07-08T08:56:05;2.53;;;2.30;;
17528;SDS011;8882;53.192;8.184;2023-07-08T08:58:43;4.55;;;2.33;;
17528;SDS011;8882;53.192;8.184;2023-07-08T09:01:13;2.75;;;2.50;;
17528;SDS011;8882;53.192;8.184;2023-07-08T09:08:52;3.50;;;2.10;;
17528;SDS011;8882;53.192;8.184;2023-07-08T09:13:44;3.17;;;2.38;;
17528;SDS011;8882;53.192;8.184;2023-07-08T09:21:46;5.15;;;2.53;;
17528;SDS011;8882;53.192;8.184;2023-07-08T09:24:39;4.43;;;2.53;;
17528;SDS011;8882;53.192;8.184;2023-07-08T09:27:10;3.85;;;2.50;;
17528;SDS011;8882;53.192;8.184;2023-07-08T09:29:35;4.30;;;2.33;;
17528;SDS011;8882;53.192;8.184;2023-07-08T09:32:11;6.10;;;2.28;;
17528;SDS011;8882;53.192;8.184;2023-07-08T09:34:46;3.85;;;2.53;;
17528;SDS011;8882;53.192;8.184;2023-07-08T09:37:25;6.18;;;2.38;;
17528;SDS011;8882;53.192;8.184;2023-07-08T09:39:53;4.28;;;2.33;;
17528;SDS011;8882;53.192;8.184;2023-07-08T09:42:20;4.53;;;2.40;;
17528;SDS011;8882;53.192;8.184;2023-07-08T09:44:49;4.50;;;2.60;;
17528;SDS011;8882;53.192;8.184;2023-07-08T09:47:25;4.95;;;2.33;;
17528;SDS011;8882;53.192;8.184;2023-07-08T09:49:56;2.53;;;2.25;;
17528;SDS011;8882;53.192;8.184;2023-07-08T09:52:22;3.67;;;2.28;;
17528;SDS011;8882;53.192;8.184;2023-07-08T09:54:49;5.55;;;2.10;;
17528;SDS011;8882;53.192;8.184;2023-07-08T09:57:28;4.18;;;2.20;;
17528;SDS011;8882;53.192;8.184;2023-07-08T09:59:59;3.13;;;2.15;;
17528;SDS011;8882;53.192;8.184;2023-07-08T10:02:40;3.67;;;2.28;;
17528;SDS011;8882;53.192;8.184;2023-07-08T10:05:27;2.78;;;2.20;;
17528;SDS011;8882;53.192;8.184;2023-07-08T10:07:58;2.33;;;2.10;;
17528;SDS011;8882;53.192;8.184;2023-07-08T10:10:30;4.10;;;2.25;;
17528;SDS011;8882;53.192;8.184;2023-07-08T10:13:00;3.05;;;2.22;;
17528;SDS011;8882;53.192;8.184;2023-07-08T10:15:34;3.10;;;2.22;;
17528;SDS011;8882;53.192;8.184;2023-07-08T10:18:03;2.65;;;2.30;;
17528;SDS011;8882;53.192;8.184;2023-07-08T10:20:33;4.63;;;2.13;;
17528;SDS011;8882;53.192;8.184;2023-07-08T10:23:31;2.22;;;2.03;;
17528;SDS011;8882;53.192;8.184;2023-07-08T10:26:20;4.60;;;2.22;;
17528;SDS011;8882;53.192;8.184;2023-07-08T10:31:55;5.85;;;2.42;;
17528;SDS011;8882;53.192;8.184;2023-07-08T10:34:46;4.53;;;2.20;;
17528;SDS011;8882;53.192;8.184;2023-07-08T10:54:08;5.43;;;2.33;;
17528;SDS011;8882;53.192;8.184;2023-07-08T10:56:48;4.72;;;2.45;;
17528;SDS011;8882;53.192;8.184;2023-07-08T11:02:52;3.53;;;2.38;;
17528;SDS011;8882;53.192;8.184;2023-07-08T11:10:56;3.30;;;2.33;;
17528;SDS011;8882;53.192;8.184;2023-07-08T11:13:27;2.00;;;1.90;;
17528;SDS011;8882;53.192;8.184;2023-07-08T11:16:05;2.70;;;2.50;;
17528;SDS011;8882;53.192;8.184;2023-07-08T11:18:53;2.50;;;2.15;;
17528;SDS011;8882;53.192;8.184;2023-07-08T11:21:36;2.35;;;2.15;;
17528;SDS011;8882;53.192;8.184;2023-07-08T11:24:11;7.13;;;2.50;;
17528;SDS011;8882;53.192;8.184;2023-07-08T11:26:50;2.92;;;2.42;;
17528;SDS011;8882;53.192;8.184;2023-07-08T11:30:06;3.40;;;2.25;;
17528;SDS011;8882;53.192;8.184;2023-07-08T11:32:14;4.35;;;2.33;;
17528;SDS011;8882;53.192;8.184;2023-07-08T11:34:43;2.60;;;2.40;;
17528;SDS011;8882;53.192;8.184;2023-07-08T11:37:11;2.47;;;2.25;;
17528;SDS011;8882;53.192;8.184;2023-07-08T11:39:41;3.28;;;2.47;;
17528;SDS011;8882;53.192;8.184;2023-07-08T11:44:47;3.70;;;2.28;;
17528;SDS011;8882;53.192;8.184;2023-07-08T11:50:06;4.38;;;2.70;;
17528;SDS011;8882;53.192;8.184;2023-07-08T11:52:51;5.10;;;2.30;;
17528;SDS011;8882;53.192;8.184;2023-07-08T11:55:24;3.35;;;2.40;;
17528;SDS011;8882;53.192;8.184;2023-07-08T11:57:54;2.53;;;2.33;;
17528;SDS011;8882;53.192;8.184;2023-07-08T12:00:22;3.70;;;2.50;;
17528;SDS011;8882;53.192;8.184;2023-07-08T12:02:51;2.75;;;2.47;;
17528;SDS011;8882;53.192;8.184;2023-07-08T12:05:28;4.60;;;2.55;;
17528;SDS011;8882;53.192;8.184;2023-07-08T12:07:58;4.03;;;2.50;;
17528;SDS011;8882;53.192;8.184;2023-07-08T12:10:37;4.85;;;2.45;;
17528;SDS011;8882;53.192;8.184;2023-07-08T12:13:09;5.25;;;2.60;;
17528;SDS011;8882;53.192;8.184;2023-07-08T12:15:37;2.38;;;2.17;;
17528;SDS011;8882;53.192;8.184;2023-07-08T12:18:14;2.67;;;2.47;;
17528;SDS011;8882;53.192;8.184;2023-07-08T12:21:01;3.95;;;2.00;;
17528;SDS011;8882;53.192;8.184;2023-07-08T12:23:28;2.78;;;2.15;;
17528;SDS011;8882;53.192;8.184;2023-07-08T12:25:54;2.78;;;2.40;;
17528;SDS011;8882;53.192;8.184;2023-07-08T12:28:22;5.18;;;2.40;;
17528;SDS011;8882;53.192;8.184;2023-07-08T12:30:49;2.50;;;2.30;;
17528;SDS011;8882;53.192;8.184;2023-07-08T12:33:16;3.25;;;2.13;;
17528;SDS011;8882;53.192;8.184;2023-07-08T12:35:47;3.22;;;2.03;;
17528;SDS011;8882;53.192;8.184;2023-07-08T12:40:52;4.63;;;2.30;;
17528;SDS011;8882;53.192;8.184;2023-07-08T12:43:18;3.30;;;2.45;;
17528;SDS011;8882;53.192;8.184;2023-07-08T12:45:43;3.97;;;2.45;;
17528;SDS011;8882;53.192;8.184;2023-07-08T12:48:09;2.72;;;2.10;;
17528;SDS011;8882;53.192;8.184;2023-07-08T12:50:34;3.22;;;2.40;;
17528;SDS011;8882;53.192;8.184;2023-07-08T12:53:00;2.85;;;2.33;;
17528;SDS011;8882;53.192;8.184;2023-07-08T12:55:34;3.78;;;2.38;;
17528;SDS011;8882;53.192;8.184;2023-07-08T12:58:00;3.38;;;2.30;;
17528;SDS011;8882;53.192;8.184;2023-07-08T13:00:30;2.38;;;2.15;;
17528;SDS011;8882;53.192;8.184;2023-07-08T13:02:59;2.30;;;2.10;;
17528;SDS011;8882;53.192;8.184;2023-07-08T13:05:30;4.18;;;2.40;;
17528;SDS011;8882;53.192;8.184;2023-07-08T13:07:56;2.40;;;2.20;;
17528;SDS011;8882;53.192;8.184;2023-07-08T13:10:23;3.20;;;2.28;;
17528;SDS011;8882;53.192;8.184;2023-07-08T13:12:52;2.83;;;2.25;;
17528;SDS011;8882;53.192;8.184;2023-07-08T13:15:21;3.15;;;2.63;;
17528;SDS011;8882;53.192;8.184;2023-07-08T13:17:50;5.82;;;2.53;;
17528;SDS011;8882;53.192;8.184;2023-07-08T13:20:16;4.63;;;2.15;;
17528;SDS011;8882;53.192;8.184;2023-07-08T13:22:51;2.42;;;2.22;;
17528;SDS011;8882;53.192;8.184;2023-07-08T13:25:19;2.75;;;2.40;;
17528;SDS011;8882;53.192;8.184;2023-07-08T13:27:54;4.88;;;2.90;;
17528;SDS011;8882;53.192;8.184;2023-07-08T13:30:39;7.13;;;2.42;;
17528;SDS011;8882;53.192;8.184;2023-07-08T13:33:14;3.55;;;2.30;;
17528;SDS011;8882;53.192;8.184;2023-07-08T13:35:41;3.00;;;2.58;;
17528;SDS011;8882;53.192;8.184;2023-07-08T13:38:15;3.88;;;2.60;;
17528;SDS011;8882;53.192;8.184;2023-07-08T13:40:44;5.53;;;2.85;;
17528;SDS011;8882;53.192;8.184;2023-07-08T13:43:11;3.42;;;2.38;;
17528;SDS011;8882;53.192;8.184;2023-07-08T13:45:37;5.28;;;2.72;;
17528;SDS011;8882;53.192;8.184;2023-07-08T13:48:13;2.90;;;2.47;;
17528;SDS011;8882;53.192;8.184;2023-07-08T13:50:56;3.28;;;2.08;;
17528;SDS011;8882;53.192;8.184;2023-07-08T13:53:27;4.15;;;2.60;;
17528;SDS011;8882;53.192;8.184;2023-07-08T13:56:25;2.90;;;2.35;;
17528;SDS011;8882;53.192;8.184;2023-07-08T13:59:12;6.80;;;2.63;;
17528;SDS011;8882;53.192;8.184;2023-07-08T14:01:43;3.22;;;2.55;;
17528;SDS011;8882;53.192;8.184;2023-07-08T14:04:10;4.53;;;2.72;;
17528;SDS011;8882;53.192;8.184;2023-07-08T14:06:39;5.03;;;2.63;;
17528;SDS011;8882;53.192;8.184;2023-07-08T14:09:12;3.72;;;2.67;;
17528;SDS011;8882;53.192;8.184;2023-07-08T14:11:40;2.88;;;2.33;;
17528;SDS011;8882;53.192;8.184;2023-07-08T14:14:06;4.32;;;2.60;;
17528;SDS011;8882;53.192;8.184;2023-07-08T14:16:34;3.22;;;2.58;;
17528;SDS011;8882;53.192;8.184;2023-07-08T14:19:05;3.70;;;2.88;;
17528;SDS011;8882;53.192;8.184;2023-07-08T14:21:35;6.40;;;2.40;;
17528;SDS011;8882;53.192;8.184;2023-07-08T14:24:01;3.28;;;2.60;;
17528;SDS011;8882;53.192;8.184;2023-07-08T14:26:28;3.58;;;2.55;;
17528;SDS011;8882;53.192;8.184;2023-07-08T14:28:54;3.00;;;2.70;;
17528;SDS011;8882;53.192;8.184;2023-07-08T14:31:23;5.25;;;2.30;;
17528;SDS011;8882;53.192;8.184;2023-07-08T14:33:51;5.00;;;2.70;;
17528;SDS011;8882;53.192;8.184;2023-07-08T14:36:29;6.10;;;3.30;;
17528;SDS011;8882;53.192;8.184;2023-07-08T14:38:55;3.85;;;2.30;;
17528;SDS011;8882;53.192;8.184;2023-07-08T14:41:20;4.78;;;3.10;;
17528;SDS011;8882;53.192;8.184;2023-07-08T14:43:46;3.17;;;2.38;;
17528;SDS011;8882;53.192;8.184;2023-07-08T14:46:11;3.13;;;2.40;;
17528;SDS011;8882;53.192;8.184;2023-07-08T14:48:37;3.28;;;2.70;;
17528;SDS011;8882;53.192;8.184;2023-07-08T14:51:02;3.10;;;2.40;;
17528;SDS011;8882;53.192;8.184;2023-07-08T14:53:28;2.80;;;2.35;;
17528;SDS011;8882;53.192;8.184;2023-07-08T14:55:54;6.20;;;2.80;;
17528;SDS011;8882;53.192;8.184;2023-07-08T14:58:22;2.97;;;2.65;;
17528;SDS011;8882;53.192;8.184;2023-07-08T15:00:51;5.45;;;2.40;;
17528;SDS011;8882;53.192;8.184;2023-07-08T15:03:19;2.90;;;2.58;;
17528;SDS011;8882;53.192;8.184;2023-07-08T15:05:44;3.20;;;2.50;;
17528;SDS011;8882;53.192;8.184;2023-07-08T15:08:10;3.88;;;2.80;;
17528;SDS011;8882;53.192;8.184;2023-07-08T15:10:36;3.30;;;2.63;;
17528;SDS011;8882;53.192;8.184;2023-07-08T15:13:03;4.25;;;2.28;;
17528;SDS011;8882;53.192;8.184;2023-07-08T15:15:31;5.63;;;2.58;;
17528;SDS011;8882;53.192;8.184;2023-07-08T15:18:00;3.83;;;2.80;;
17528;SDS011;8882;53.192;8.184;2023-07-08T15:20:27;4.13;;;2.45;;
17528;SDS011;8882;53.192;8.184;2023-07-08T15:22:53;5.68;;;2.72;;
17528;SDS011;8882;53.192;8.184;2023-07-08T15:25:19;9.57;;;2.58;;
17528;SDS011;8882;53.192;8.184;2023-07-08T15:27:45;3.05;;;2.75;;
17528;SDS011;8882;53.192;8.184;2023-07-08T15:30:34;3.47;;;3.08;;
17528;SDS011;8882;53.192;8.184;2023-07-08T15:32:59;5.85;;;2.83;;
17528;SDS011;8882;53.192;8.184;2023-07-08T15:35:28;7.00;;;3.10;;
17528;SDS011;8882;53.192;8.184;2023-07-08T15:37:55;3.35;;;2.60;;
17528;SDS011;8882;53.192;8.184;2023-07-08T15:40:22;5.18;;;2.85;;
17528;SDS011;8882;53.192;8.184;2023-07-08T15:42:53;3.63;;;2.70;;
17528;SDS011;8882;53.192;8.184;2023-07-08T15:45:27;3.08;;;2.60;;
17528;SDS011;8882;53.192;8.184;2023-07-08T15:47:55;3.15;;;2.47;;
17528;SDS011;8882;53.192;8.184;2023-07-08T15:50:22;3.55;;;2.40;;
17528;SDS011;8882;53.192;8.184;2023-07-08T15:52:49;4.03;;;2.70;;
17528;SDS011;8882;53.192;8.184;2023-07-08T15:55:17;2.97;;;2.55;;
17528;SDS011;8882;53.192;8.184;2023-07-08T15:57:53;4.53;;;2.40;;
17528;SDS011;8882;53.192;8.184;2023-07-08T16:00:23;3.83;;;2.60;;
17528;SDS011;8882;53.192;8.184;2023-07-08T16:02:55;4.50;;;3.03;;
17528;SDS011;8882;53.192;8.184;2023-07-08T16:05:22;2.95;;;2.63;;
17528;SDS011;8882;53.192;8.184;2023-07-08T16:07:49;6.60;;;2.95;;
17528;SDS011;8882;53.192;8.184;2023-07-08T16:10:16;3.83;;;3.15;;
17528;SDS011;8882;53.192;8.184;2023-07-08T16:12:43;4.15;;;3.30;;
17528;SDS011;8882;53.192;8.184;2023-07-08T16:15:21;4.78;;;3.15;;
17528;SDS011;8882;53.192;8.184;2023-07-08T16:17:49;5.70;;;3.63;;
17528;SDS011;8882;53.192;8.184;2023-07-08T16:20:16;6.00;;;2.88;;
17528;SDS011;8882;53.192;8.184;2023-07-08T16:22:44;3.70;;;2.80;;
17528;SDS011;8882;53.192;8.184;2023-07-08T16:25:11;4.72;;;3.00;;
17528;SDS011;8882;53.192;8.184;2023-07-08T16:27:38;4.43;;;2.67;;
17528;SDS011;8882;53.192;8.184;2023-07-08T16:30:05;3.20;;;2.63;;
17528;SDS011;8882;53.192;8.184;2023-07-08T16:32:31;4.05;;;2.80;;
17528;SDS011;8882;53.192;8.184;2023-07-08T16:34:56;3.30;;;2.60;;
17528;SDS011;8882;53.192;8.184;2023-07-08T16:37:22;3.55;;;2.78;;
17528;SDS011;8882;53.192;8.184;2023-07-08T16:39:47;5.13;;;3.10;;
17528;SDS011;8882;53.192;8.184;2023-07-08T16:42:14;3.92;;;2.63;;
17528;SDS011;8882;53.192;8.184;2023-07-08T16:44:40;3.05;;;2.72;;
17528;SDS011;8882;53.192;8.184;2023-07-08T16:47:07;4.63;;;2.53;;
17528;SDS011;8882;53.192;8.184;2023-07-08T16:49:33;3.83;;;2.90;;
17528;SDS011;8882;53.192;8.184;2023-07-08T16:51:59;3.25;;;2.63;;
17528;SDS011;8882;53.192;8.184;2023-07-08T16:54:25;8.20;;;2.92;;
17528;SDS011;8882;53.192;8.184;2023-07-08T16:56:50;9.00;;;3.08;;
17528;SDS011;8882;53.192;8.184;2023-07-08T16:59:16;3.33;;;3.03;;
17528;SDS011;8882;53.192;8.184;2023-07-08T17:01:41;4.47;;;2.95;;
17528;SDS011;8882;53.192;8.184;2023-07-08T17:04:11;3.45;;;2.78;;
17528;SDS011;8882;53.192;8.184;2023-07-08T17:06:38;3.88;;;3.10;;
17528;SDS011;8882;53.192;8.184;2023-07-08T17:09:04;3.05;;;2.67;;
17528;SDS011;8882;53.192;8.184;2023-07-08T17:11:30;4.68;;;2.97;;
17528;SDS011;8882;53.192;8.184;2023-07-08T17:13:56;4.90;;;2.95;;
17528;SDS011;8882;53.192;8.184;2023-07-08T17:16:29;4.60;;;2.88;;
17528;SDS011;8882;53.192;8.184;2023-07-08T17:18:57;3.65;;;2.80;;
17528;SDS011;8882;53.192;8.184;2023-07-08T17:21:23;4.00;;;2.70;;
17528;SDS011;8882;53.192;8.184;2023-07-08T17:23:48;4.97;;;3.13;;
17528;SDS011;8882;53.192;8.184;2023-07-08T17:26:14;3.85;;;2.83;;
17528;SDS011;8882;53.192;8.184;2023-07-08T17:28:40;3.50;;;2.92;;
17528;SDS011;8882;53.192;8.184;2023-07-08T17:31:05;5.20;;;3.00;;
17528;SDS011;8882;53.192;8.184;2023-07-08T17:33:38;3.85;;;2.97;;
17528;SDS011;8882;53.192;8.184;2023-07-08T17:36:10;4.57;;;2.95;;
17528;SDS011;8882;53.192;8.184;2023-07-08T17:38:46;3.20;;;2.88;;
17528;SDS011;8882;53.192;8.184;2023-07-08T17:41:15;4.18;;;3.33;;
17528;SDS011;8882;53.192;8.184;2023-07-08T17:43:41;5.53;;;2.80;;
17528;SDS011;8882;53.192;8.184;2023-07-08T17:46:08;4.95;;;2.90;;
17528;SDS011;8882;53.192;8.184;2023-07-08T17:48:38;3.25;;;2.72;;
17528;SDS011;8882;53.192;8.184;2023-07-08T17:51:07;3.45;;;2.55;;
17528;SDS011;8882;53.192;8.184;2023-07-08T17:53:33;5.80;;;3.03;;
17528;SDS011;8882;53.192;8.184;2023-07-08T17:55:58;5.60;;;3.03;;
17528;SDS011;8882;53.192;8.184;2023-07-08T17:58:24;5.55;;;3.50;;
17528;SDS011;8882;53.192;8.184;2023-07-08T18:00:51;3.80;;;2.78;;
17528;SDS011;8882;53.192;8.184;2023-07-08T18:03:17;3.38;;;2.95;;
17528;SDS011;8882;53.192;8.184;2023-07-08T18:05:42;5.53;;;3.00;;
17528;SDS011;8882;53.192;8.184;2023-07-08T18:08:08;4.32;;;2.95;;
17528;SDS011;8882;53.192;8.184;2023-07-08T18:10:33;4.40;;;3.20;;
17528;SDS011;8882;53.192;8.184;2023-07-08T18:12:59;5.55;;;3.17;;
17528;SDS011;8882;53.192;8.184;2023-07-08T18:15:29;3.78;;;2.85;;
17528;SDS011;8882;53.192;8.184;2023-07-08T18:17:59;4.28;;;3.25;;
17528;SDS011;8882;53.192;8.184;2023-07-08T18:20:29;3.88;;;2.88;;
17528;SDS011;8882;53.192;8.184;2023-07-08T18:23:00;6.85;;;5.05;;
17528;SDS011;8882;53.192;8.184;2023-07-08T18:25:28;5.72;;;4.00;;
17528;SDS011;8882;53.192;8.184;2023-07-08T18:27:56;6.72;;;3.78;;
17528;SDS011;8882;53.192;8.184;2023-07-08T18:30:21;6.75;;;4.93;;
17528;SDS011;8882;53.192;8.184;2023-07-08T18:32:50;12.77;;;8.27;;
17528;SDS011;8882;53.192;8.184;2023-07-08T18:35:17;5.20;;;4.13;;
17528;SDS011;8882;53.192;8.184;2023-07-08T18:37:48;6.30;;;3.47;;
17528;SDS011;8882;53.192;8.184;2023-07-08T18:40:15;4.30;;;3.30;;
17528;SDS011;8882;53.192;8.184;2023-07-08T18:42:44;4.07;;;3.20;;
17528;SDS011;8882;53.192;8.184;2023-07-08T18:45:18;4.00;;;3.35;;
17528;SDS011;8882;53.192;8.184;2023-07-08T18:47:45;4.22;;;3.03;;
17528;SDS011;8882;53.192;8.184;2023-07-08T18:50:11;3.58;;;3.03;;
17528;SDS011;8882;53.192;8.184;2023-07-08T18:52:37;4.22;;;3.30;;
17528;SDS011;8882;53.192;8.184;2023-07-08T18:55:02;4.07;;;3.05;;
17528;SDS011;8882;53.192;8.184;2023-07-08T18:57:28;3.53;;;3.22;;
17528;SDS011;8882;53.192;8.184;2023-07-08T18:59:54;4.75;;;4.00;;
17528;SDS011;8882;53.192;8.184;2023-07-08T19:02:30;5.85;;;5.07;;
17528;SDS011;8882;53.192;8.184;2023-07-08T19:05:01;5.72;;;4.35;;
17528;SDS011;8882;53.192;8.184;2023-07-08T19:07:27;4.82;;;4.13;;
17528;SDS011;8882;53.192;8.184;2023-07-08T19:09:53;4.28;;;3.15;;
17528;SDS011;8882;53.192;8.184;2023-07-08T19:12:20;3.88;;;3.20;;
17528;SDS011;8882;53.192;8.184;2023-07-08T19:14:49;3.88;;;2.83;;
17528;SDS011;8882;53.192;8.184;2023-07-08T19:17:14;3.17;;;2.88;;
17528;SDS011;8882;53.192;8.184;2023-07-08T19:19:40;5.63;;;3.15;;
17528;SDS011;8882;53.192;8.184;2023-07-08T19:22:07;4.00;;;3.33;;
17528;SDS011;8882;53.192;8.184;2023-07-08T19:24:38;6.75;;;3.25;;
17528;SDS011;8882;53.192;8.184;2023-07-08T19:27:04;4.85;;;2.70;;
17528;SDS011;8882;53.192;8.184;2023-07-08T19:29:37;3.95;;;3.22;;
17528;SDS011;8882;53.192;8.184;2023-07-08T19:32:02;3.85;;;3.05;;
17528;SDS011;8882;53.192;8.184;2023-07-08T19:34:29;4.63;;;3.13;;
17528;SDS011;8882;53.192;8.184;2023-07-08T19:36:54;5.10;;;3.10;;
17528;SDS011;8882;53.192;8.184;2023-07-08T19:39:20;3.40;;;2.92;;
17528;SDS011;8882;53.192;8.184;2023-07-08T19:41:45;3.67;;;3.10;;
17528;SDS011;8882;53.192;8.184;2023-07-08T19:44:14;4.47;;;3.25;;
17528;SDS011;8882;53.192;8.184;2023-07-08T19:46:47;4.75;;;3.38;;
17528;SDS011;8882;53.192;8.184;2023-07-08T19:49:12;4.35;;;3.20;;
17528;SDS011;8882;53.192;8.184;2023-07-08T19:51:38;4.60;;;3.30;;
17528;SDS011;8882;53.192;8.184;2023-07-08T19:54:04;3.58;;;3.22;;
17528;SDS011;8882;53.192;8.184;2023-07-08T19:56:29;4.93;;;3.42;;
17528;SDS011;8882;53.192;8.184;2023-07-08T19:58:55;7.25;;;3.55;;
17528;SDS011;8882;53.192;8.184;2023-07-08T20:01:21;4.13;;;3.67;;
17528;SDS011;8882;53.192;8.184;2023-07-08T20:03:47;3.85;;;2.95;;
17528;SDS011;8882;53.192;8.184;2023-07-08T20:08:42;2.92;;;2.65;;
17528;SDS011;8882;53.192;8.184;2023-07-08T20:11:08;3.58;;;3.15;;
17528;SDS011;8882;53.192;8.184;2023-07-08T20:13:34;4.47;;;3.30;;
17528;SDS011;8882;53.192;8.184;2023-07-08T20:16:11;3.40;;;3.08;;
17528;SDS011;8882;53.192;8.184;2023-07-08T20:18:47;3.47;;;3.00;;
17528;SDS011;8882;53.192;8.184;2023-07-08T20:21:13;4.95;;;3.15;;
17528;SDS011;8882;53.192;8.184;2023-07-08T20:23:39;4.13;;;3.15;;
17528;SDS011;8882;53.192;8.184;2023-07-08T20:26:13;3.85;;;3.00;;
17528;SDS011;8882;53.192;8.184;2023-07-08T20:28:52;4.80;;;2.80;;
17528;SDS011;8882;53.192;8.184;2023-07-08T20:31:18;4.38;;;3.40;;
17528;SDS011;8882;53.192;8.184;2023-07-08T20:33:44;3.72;;;3.22;;
17528;SDS011;8882;53.192;8.184;2023-07-08T20:36:13;5.07;;;3.30;;
17528;SDS011;8882;53.192;8.184;2023-07-08T20:38:43;2.85;;;2.65;;
17528;SDS011;8882;53.192;8.184;2023-07-08T20:41:09;3.40;;;3.10;;
17528;SDS011;8882;53.192;8.184;2023-07-08T20:43:35;6.78;;;3.63;;
17528;SDS011;8882;53.192;8.184;2023-07-08T20:46:01;4.22;;;3.03;;
17528;SDS011;8882;53.192;8.184;2023-07-08T20:48:29;3.40;;;3.10;;
17528;SDS011;8882;53.192;8.184;2023-07-08T20:50:56;3.50;;;3.08;;
17528;SDS011;8882;53.192;8.184;2023-07-08T20:53:23;3.15;;;2.85;;
17528;SDS011;8882;53.192;8.184;2023-07-08T20:55:49;5.97;;;3.00;;
17528;SDS011;8882;53.192;8.184;2023-07-08T20:58:18;4.93;;;2.70;;
